createdAt,value
2018-09-24T00:00:29.757Z,91.70
2018-09-24T00:02:58.822Z,91.70
2018-09-24T00:05:27.800Z,91.80
2018-09-24T00:07:56.893Z,91.70
2018-09-24T00:10:26.031Z,91.70
2018-09-24T00:12:55.097Z,91.70
2018-09-24T00:15:24.158Z,92.00
2018-09-24T00:17:53.454Z,91.70
2018-09-24T00:20:22.621Z,91.70
2018-09-24T00:22:51.698Z,91.60
2018-09-24T00:25:20.813Z,91.70
2018-09-24T00:27:49.937Z,91.70
2018-09-24T00:30:19.025Z,91.70
2018-09-24T00:32:48.086Z,91.70
2018-09-24T00:35:17.186Z,91.70
2018-09-24T00:37:46.321Z,91.70
2018-09-24T00:40:15.276Z,91.70
2018-09-24T00:42:44.370Z,91.60
2018-09-24T00:45:13.410Z,91.60
2018-09-24T00:47:42.505Z,91.50
2018-09-24T00:50:11.623Z,91.40
2018-09-24T00:52:40.696Z,91.40
2018-09-24T00:55:09.751Z,91.30
2018-09-24T00:57:38.809Z,91.20
2018-09-24T01:00:08.013Z,91.10
2018-09-24T01:02:37.249Z,91.10
2018-09-24T01:05:06.650Z,91.10
2018-09-24T01:07:35.776Z,91.00
2018-09-24T01:10:04.909Z,91.00
2018-09-24T01:12:34.070Z,91.00
2018-09-24T01:15:03.161Z,91.00
2018-09-24T01:17:32.183Z,90.90
2018-09-24T01:20:01.232Z,91.00
2018-09-24T01:22:30.339Z,91.00
2018-09-24T01:24:59.370Z,91.00
2018-09-24T01:27:28.525Z,91.30
2018-09-24T01:29:57.605Z,91.00
2018-09-24T01:32:26.644Z,91.10
2018-09-24T01:34:55.783Z,91.10
2018-09-24T01:37:24.909Z,91.20
2018-09-24T01:39:54.022Z,91.20
2018-09-24T01:42:23.065Z,91.20
2018-09-24T01:44:52.054Z,91.30
2018-09-24T01:47:21.073Z,91.30
2018-09-24T01:49:50.128Z,91.30
2018-09-24T01:52:19.299Z,91.40
2018-09-24T01:54:48.429Z,91.40
2018-09-24T01:57:18.428Z,91.40
2018-09-24T01:59:56.665Z,91.50
2018-09-24T02:02:25.760Z,91.50
2018-09-24T02:04:54.820Z,91.50
2018-09-24T02:07:23.921Z,91.50
2018-09-24T02:09:53.030Z,91.50
2018-09-24T02:12:22.153Z,91.50
2018-09-24T02:14:51.278Z,91.50
2018-09-24T02:17:22.437Z,91.50
2018-09-24T02:19:52.149Z,91.50
2018-09-24T02:22:28.993Z,91.50
2018-09-24T02:24:59.030Z,91.50
2018-09-24T02:27:28.208Z,91.50
2018-09-24T02:29:57.280Z,91.50
2018-09-24T02:32:26.782Z,91.40
2018-09-24T02:34:57.791Z,91.40
2018-09-24T02:37:26.920Z,91.40
2018-09-24T02:39:55.977Z,91.30
2018-09-24T02:42:25.046Z,91.30
2018-09-24T02:44:57.533Z,91.30
2018-09-24T02:47:30.744Z,91.20
2018-09-24T02:50:00.538Z,91.20
2018-09-24T02:52:29.638Z,91.20
2018-09-24T02:54:58.782Z,91.20
2018-09-24T02:57:27.845Z,91.10
2018-09-24T02:59:56.967Z,91.20
2018-09-24T03:02:25.977Z,91.30
2018-09-24T03:04:56.116Z,91.30
2018-09-24T03:07:25.125Z,91.30
2018-09-24T03:09:54.149Z,91.30
2018-09-24T03:12:23.201Z,91.40
2018-09-24T03:14:52.308Z,91.30
2018-09-24T03:17:21.421Z,91.30
2018-09-24T03:19:53.002Z,91.30
2018-09-24T03:22:24.353Z,91.30
2018-09-24T03:24:54.656Z,91.20
2018-09-24T03:27:24.530Z,91.20
2018-09-24T03:29:53.656Z,91.20
2018-09-24T03:32:22.743Z,91.20
2018-09-24T03:34:51.903Z,91.20
2018-09-24T03:37:20.936Z,91.20
2018-09-24T03:39:49.977Z,91.20
2018-09-24T03:42:19.071Z,91.20
2018-09-24T03:44:48.142Z,91.20
2018-09-24T03:47:17.269Z,91.20
2018-09-24T03:49:46.385Z,91.40
2018-09-24T03:52:15.480Z,91.20
2018-09-24T03:54:44.615Z,91.20
2018-09-24T03:57:13.727Z,91.20
2018-09-24T03:59:42.862Z,91.20
2018-09-24T04:02:11.885Z,91.20
2018-09-24T04:04:46.143Z,91.30
2018-09-24T04:07:20.589Z,91.30
2018-09-24T04:09:55.418Z,91.30
2018-09-24T04:12:29.536Z,91.30
2018-09-24T04:15:03.887Z,91.30
2018-09-24T04:17:39.759Z,91.30
2018-09-24T04:20:14.151Z,91.30
2018-09-24T04:22:48.415Z,91.30
2018-09-24T04:25:22.529Z,91.20
2018-09-24T04:27:56.625Z,91.20
2018-09-24T04:30:30.726Z,91.20
2018-09-24T04:33:04.874Z,91.20
2018-09-24T04:35:39.190Z,91.20
2018-09-24T04:38:13.545Z,91.20
2018-09-24T04:40:47.802Z,91.20
2018-09-24T04:43:22.063Z,91.20
2018-09-24T04:45:56.153Z,91.20
2018-09-24T04:48:30.496Z,91.20
2018-09-24T04:51:04.668Z,91.20
2018-09-24T04:53:38.888Z,91.20
2018-09-24T04:56:13.070Z,91.30
2018-09-24T04:58:47.288Z,91.30
2018-09-24T05:01:21.406Z,91.40
2018-09-24T05:03:55.618Z,91.20
2018-09-24T05:06:29.885Z,91.30
2018-09-24T05:09:04.178Z,91.20
2018-09-24T05:11:38.421Z,91.20
2018-09-24T05:14:12.761Z,91.20
2018-09-24T05:16:47.135Z,91.20
2018-09-24T05:19:21.274Z,91.20
2018-09-24T05:21:55.454Z,91.20
2018-09-24T05:24:29.838Z,91.10
2018-09-24T05:27:04.120Z,91.10
2018-09-24T05:29:38.325Z,91.10
2018-09-24T05:32:12.733Z,91.10
2018-09-24T05:34:47.059Z,91.10
2018-09-24T05:37:21.142Z,91.10
2018-09-24T05:39:55.343Z,91.10
2018-09-24T05:42:29.507Z,91.10
2018-09-24T05:45:04.213Z,91.10
2018-09-24T05:47:38.420Z,91.10
2018-09-24T05:50:12.953Z,91.10
2018-09-24T05:52:47.290Z,91.20
2018-09-24T05:55:21.546Z,91.10
2018-09-24T05:57:55.807Z,91.10
2018-09-24T06:00:30.005Z,91.00
2018-09-24T06:03:04.297Z,91.10
2018-09-24T06:05:38.709Z,91.00
2018-09-24T06:08:13.086Z,91.00
2018-09-24T06:10:47.472Z,91.00
2018-09-24T06:13:21.721Z,91.00
2018-09-24T06:15:55.940Z,91.00
2018-09-24T06:18:30.112Z,91.00
2018-09-24T06:21:04.398Z,91.00
2018-09-24T06:23:38.689Z,91.00
2018-09-24T06:26:12.827Z,91.00
2018-09-24T06:28:47.001Z,90.90
2018-09-24T06:31:21.335Z,90.90
2018-09-24T06:33:55.598Z,90.90
2018-09-24T06:36:29.695Z,91.00
2018-09-24T06:39:03.917Z,90.90
2018-09-24T06:41:38.185Z,90.90
2018-09-24T06:44:12.325Z,90.80
2018-09-24T06:46:46.519Z,90.80
2018-09-24T06:49:20.661Z,90.70
2018-09-24T06:51:54.963Z,90.60
2018-09-24T06:54:29.252Z,90.50
2018-09-24T06:57:03.566Z,90.50
2018-09-24T06:59:37.724Z,90.40
2018-09-24T07:02:11.830Z,90.40
2018-09-24T07:04:46.134Z,90.30
2018-09-24T07:07:20.450Z,90.20
2018-09-24T07:09:54.630Z,90.20
2018-09-24T07:12:28.777Z,90.20
2018-09-24T07:15:03.074Z,90.20
2018-09-24T07:17:37.184Z,90.10
2018-09-24T07:20:11.539Z,90.00
2018-09-24T07:22:45.719Z,90.00
2018-09-24T07:25:19.838Z,89.90
2018-09-24T07:27:54.209Z,89.70
2018-09-24T07:30:28.595Z,89.40
2018-09-24T07:33:02.958Z,89.00
2018-09-24T07:35:37.177Z,88.90
2018-09-24T07:38:11.520Z,88.70
2018-09-24T07:40:45.820Z,88.50
2018-09-24T07:43:20.005Z,88.30
2018-09-24T07:45:54.248Z,88.20
2018-09-24T07:48:28.449Z,87.80
2018-09-24T07:51:02.550Z,87.50
2018-09-24T07:53:36.922Z,87.00
2018-09-24T07:56:11.165Z,87.00
2018-09-24T07:58:45.453Z,86.20
2018-09-24T08:01:19.684Z,86.80
2018-09-24T08:03:54.010Z,86.50
2018-09-24T08:06:28.327Z,86.10
2018-09-24T08:09:02.491Z,86.10
2018-09-24T08:11:36.685Z,85.90
2018-09-24T08:14:10.786Z,85.50
2018-09-24T08:16:45.150Z,85.10
2018-09-24T08:19:19.364Z,85.10
2018-09-24T08:21:53.721Z,85.20
2018-09-24T08:24:27.794Z,84.90
2018-09-24T08:27:02.113Z,84.50
2018-09-24T08:29:36.338Z,83.10
2018-09-24T08:32:10.729Z,82.80
2018-09-24T08:34:52.274Z,81.70
2018-09-24T08:37:26.374Z,81.40
2018-09-24T08:40:00.522Z,80.90
2018-09-24T08:42:34.630Z,80.40
2018-09-24T08:45:09.030Z,81.00
2018-09-24T08:47:43.233Z,80.00
2018-09-24T08:50:17.257Z,79.70
2018-09-24T08:52:51.448Z,79.00
2018-09-24T08:55:25.494Z,78.80
2018-09-24T08:57:59.607Z,78.90
2018-09-24T09:00:33.802Z,78.70
2018-09-24T09:03:08.062Z,77.80
2018-09-24T09:05:42.222Z,77.70
2018-09-24T09:08:16.325Z,77.30
2018-09-24T09:10:50.565Z,77.50
2018-09-24T09:13:24.901Z,78.10
2018-09-24T09:15:59.225Z,76.90
2018-09-24T09:18:33.482Z,76.60
2018-09-24T09:21:07.610Z,75.80
2018-09-24T09:23:41.997Z,75.60
2018-09-24T09:26:16.139Z,75.00
2018-09-24T09:28:50.401Z,74.30
2018-09-24T09:31:24.529Z,73.90
2018-09-24T09:33:58.857Z,73.20
2018-09-24T09:36:33.129Z,72.70
2018-09-24T09:39:07.339Z,72.70
2018-09-24T09:41:41.729Z,72.30
2018-09-24T09:44:16.067Z,72.00
2018-09-24T09:46:50.430Z,71.30
2018-09-24T09:49:24.581Z,70.80
2018-09-24T09:51:58.834Z,70.80
2018-09-24T09:54:33.015Z,70.40
2018-09-24T09:57:07.165Z,70.00
2018-09-24T09:59:41.505Z,69.80
2018-09-24T10:02:15.735Z,69.60
2018-09-24T10:04:50.148Z,69.00
2018-09-24T10:07:24.213Z,69.00
2018-09-24T10:09:58.317Z,68.70
2018-09-24T10:12:32.454Z,67.70
2018-09-24T10:15:06.494Z,67.10
2018-09-24T10:17:40.770Z,66.90
2018-09-24T10:20:14.913Z,66.60
2018-09-24T10:22:49.210Z,66.70
2018-09-24T10:25:23.530Z,66.00
2018-09-24T10:27:57.805Z,65.80
2018-09-24T10:30:32.045Z,65.60
2018-09-24T10:33:06.389Z,65.30
2018-09-24T10:35:40.581Z,65.50
2018-09-24T10:38:14.679Z,65.60
2018-09-24T10:40:48.966Z,65.40
2018-09-24T10:43:23.182Z,65.10
2018-09-24T10:45:57.456Z,65.00
2018-09-24T10:48:31.586Z,64.60
2018-09-24T10:51:05.727Z,64.50
2018-09-24T10:53:40.058Z,64.10
2018-09-24T10:56:14.241Z,63.80
2018-09-24T10:58:48.441Z,63.60
2018-09-24T11:01:22.768Z,63.80
2018-09-24T11:03:57.042Z,63.30
2018-09-24T11:06:31.097Z,63.30
2018-09-24T11:09:05.371Z,63.60
2018-09-24T11:11:39.501Z,63.60
2018-09-24T11:14:13.785Z,63.60
2018-09-24T11:16:48.474Z,63.30
2018-09-24T11:19:22.449Z,63.10
2018-09-24T11:21:56.601Z,62.90
2018-09-24T11:24:30.898Z,62.70
2018-09-24T11:27:04.990Z,62.60
2018-09-24T11:29:39.326Z,62.20
2018-09-24T11:32:13.390Z,61.90
2018-09-24T11:34:47.652Z,61.00
2018-09-24T11:37:21.897Z,60.70
2018-09-24T11:39:56.085Z,61.40
2018-09-24T11:42:30.341Z,61.20
2018-09-24T11:45:04.621Z,61.40
2018-09-24T11:47:38.817Z,61.80
2018-09-24T11:50:13.130Z,61.80
2018-09-24T11:52:47.477Z,62.00
2018-09-24T11:55:21.626Z,61.70
2018-09-24T11:57:55.925Z,60.60
2018-09-24T12:00:30.213Z,59.50
2018-09-24T12:03:04.529Z,59.60
2018-09-24T12:05:38.726Z,58.80
2018-09-24T12:08:12.845Z,57.60
2018-09-24T12:10:46.981Z,57.30
2018-09-24T12:13:21.385Z,56.60
2018-09-24T12:15:55.733Z,55.90
2018-09-24T12:18:30.066Z,55.40
2018-09-24T12:21:04.141Z,55.10
2018-09-24T12:23:38.233Z,55.40
2018-09-24T12:26:12.466Z,55.90
2018-09-24T12:28:46.714Z,55.30
2018-09-24T12:31:20.869Z,55.30
2018-09-24T12:33:55.013Z,55.40
2018-09-24T12:36:29.322Z,55.40
2018-09-24T12:39:03.458Z,55.50
2018-09-24T12:41:37.722Z,54.70
2018-09-24T12:44:12.013Z,54.50
2018-09-24T12:46:46.320Z,54.80
2018-09-24T12:49:20.489Z,54.50
2018-09-24T12:51:54.752Z,54.00
2018-09-24T12:54:28.938Z,54.30
2018-09-24T12:57:03.225Z,53.70
2018-09-24T12:59:37.377Z,53.20
2018-09-24T13:02:11.663Z,52.60
2018-09-24T13:04:45.930Z,51.70
2018-09-24T13:07:20.240Z,51.20
2018-09-24T13:09:54.382Z,50.90
2018-09-24T13:12:28.865Z,51.30
2018-09-24T13:15:03.141Z,51.50
2018-09-24T13:17:37.237Z,51.20
2018-09-24T13:20:11.626Z,51.30
2018-09-24T13:22:45.745Z,50.20
2018-09-24T13:25:19.845Z,49.30
2018-09-24T13:27:54.125Z,48.70
2018-09-24T13:30:28.409Z,48.30
2018-09-24T13:33:02.705Z,47.70
2018-09-24T13:35:37.100Z,46.90
2018-09-24T13:38:11.427Z,46.30
2018-09-24T13:40:45.617Z,46.20
2018-09-24T13:43:19.978Z,46.20
2018-09-24T13:45:54.096Z,46.20
2018-09-24T13:48:28.477Z,46.70
2018-09-24T13:51:02.801Z,47.30
2018-09-24T13:53:36.962Z,47.50
2018-09-24T13:56:11.277Z,48.10
2018-09-24T13:58:45.349Z,48.50
2018-09-24T14:01:19.691Z,48.90
2018-09-24T14:03:53.790Z,50.30
2018-09-24T14:06:28.181Z,50.50
2018-09-24T14:09:02.484Z,50.60
2018-09-24T14:11:36.609Z,50.30
2018-09-24T14:14:10.804Z,50.50
2018-09-24T14:16:44.870Z,50.80
2018-09-24T14:19:19.076Z,50.90
2018-09-24T14:21:53.418Z,51.30
2018-09-24T14:24:27.597Z,50.70
2018-09-24T14:27:01.753Z,51.20
2018-09-24T14:29:36.174Z,50.90
2018-09-24T14:32:10.337Z,50.90
2018-09-24T14:34:44.691Z,51.80
2018-09-24T14:37:19.065Z,51.90
2018-09-24T14:39:53.356Z,51.30
2018-09-24T14:42:27.607Z,50.30
2018-09-24T14:45:01.946Z,49.40
2018-09-24T14:47:36.104Z,49.30
2018-09-24T14:50:10.358Z,48.90
2018-09-24T14:52:44.432Z,48.00
2018-09-24T14:55:18.568Z,47.30
2018-09-24T14:57:52.897Z,47.80
2018-09-24T15:00:27.077Z,48.00
2018-09-24T15:03:01.386Z,47.40
2018-09-24T15:05:35.595Z,46.80
2018-09-24T15:08:09.665Z,46.20
2018-09-24T15:10:44.007Z,46.60
2018-09-24T15:13:18.189Z,47.10
2018-09-24T15:15:52.615Z,47.00
2018-09-24T15:18:26.858Z,46.90
2018-09-24T15:21:00.974Z,47.40
2018-09-24T15:23:35.240Z,47.50
2018-09-24T15:26:09.463Z,47.20
2018-09-24T15:28:43.694Z,47.50
2018-09-24T15:31:17.829Z,47.90
2018-09-24T15:33:51.906Z,47.90
2018-09-24T15:36:26.037Z,47.90
2018-09-24T15:39:00.181Z,48.00
2018-09-24T15:41:34.383Z,47.60
2018-09-24T15:44:08.700Z,47.90
2018-09-24T15:46:42.861Z,47.60
2018-09-24T15:49:17.225Z,47.40
2018-09-24T15:51:51.549Z,47.80
2018-09-24T15:54:25.717Z,48.00
2018-09-24T15:56:59.801Z,48.40
2018-09-24T15:59:33.997Z,48.10
2018-09-24T16:02:08.519Z,48.50
2018-09-24T16:04:42.636Z,48.80
2018-09-24T16:07:16.893Z,49.20
2018-09-24T16:09:52.338Z,49.60
2018-09-24T16:12:26.461Z,49.80
2018-09-24T16:15:00.602Z,50.40
2018-09-24T16:17:35.356Z,50.80
2018-09-24T16:20:09.729Z,51.90
2018-09-24T16:22:44.050Z,52.10
2018-09-24T16:25:18.233Z,52.60
2018-09-24T16:27:52.589Z,53.40
2018-09-24T16:30:26.953Z,53.40
2018-09-24T16:33:01.403Z,53.20
2018-09-24T16:35:35.649Z,53.50
2018-09-24T16:38:09.862Z,54.00
2018-09-24T16:40:44.024Z,54.20
2018-09-24T16:43:18.775Z,54.20
2018-09-24T16:45:53.046Z,54.00
2018-09-24T16:48:27.249Z,54.10
2018-09-24T16:51:01.657Z,54.40
2018-09-24T16:53:35.998Z,54.60
2018-09-24T16:56:10.102Z,54.80
2018-09-24T16:58:45.430Z,55.10
2018-09-24T17:01:19.672Z,55.40
2018-09-24T17:03:53.956Z,55.30
2018-09-24T17:06:28.240Z,56.00
2018-09-24T17:09:02.384Z,56.60
2018-09-24T17:11:36.569Z,57.20
2018-09-24T17:14:10.826Z,57.80
2018-09-24T17:16:50.973Z,58.20
2018-09-24T17:19:25.107Z,58.60
2018-09-24T17:21:59.480Z,59.00
2018-09-24T17:24:33.693Z,59.10
2018-09-24T17:27:08.106Z,58.90
2018-09-24T17:29:42.274Z,58.50
2018-09-24T17:32:16.355Z,58.70
2018-09-24T17:34:50.489Z,58.60
2018-09-24T17:37:24.746Z,58.90
2018-09-24T17:39:59.010Z,59.70
2018-09-24T17:42:33.274Z,60.00
2018-09-24T17:45:07.686Z,60.70
2018-09-24T17:47:41.961Z,61.00
2018-09-24T17:50:16.292Z,61.60
2018-09-24T17:52:50.466Z,62.20
2018-09-24T17:55:24.557Z,62.70
2018-09-24T17:57:58.868Z,63.10
2018-09-24T18:00:33.002Z,63.50
2018-09-24T18:03:08.042Z,63.50
2018-09-24T18:05:42.258Z,63.70
2018-09-24T18:08:16.587Z,63.80
2018-09-24T18:10:50.642Z,63.90
2018-09-24T18:13:24.718Z,64.30
2018-09-24T18:15:58.987Z,64.80
2018-09-24T18:18:33.256Z,65.30
2018-09-24T18:21:07.570Z,65.80
2018-09-24T18:23:42.010Z,66.50
2018-09-24T18:26:16.343Z,66.90
2018-09-24T18:28:50.678Z,67.40
2018-09-24T18:31:25.104Z,67.40
2018-09-24T18:34:02.919Z,68.00
2018-09-24T18:36:37.139Z,68.20
2018-09-24T18:39:14.012Z,68.30
2018-09-24T18:41:48.592Z,69.10
2018-09-24T18:44:23.023Z,68.00
2018-09-24T18:46:57.193Z,67.90
2018-09-24T18:49:31.401Z,67.40
2018-09-24T18:52:05.716Z,67.30
2018-09-24T18:54:40.181Z,67.40
2018-09-24T18:57:26.107Z,68.20
2018-09-24T19:00:00.319Z,68.80
2018-09-24T19:02:34.597Z,69.00
2018-09-24T19:05:08.710Z,68.50
2018-09-24T19:07:43.068Z,67.80
2018-09-24T19:10:17.285Z,67.40
2018-09-24T19:12:51.742Z,68.20
2018-09-24T19:15:26.037Z,67.90
2018-09-24T19:18:00.314Z,68.60
2018-09-24T19:20:34.575Z,68.90
2018-09-24T19:23:08.857Z,69.00
2018-09-24T19:25:43.074Z,69.10
2018-09-24T19:28:17.356Z,69.10
2018-09-24T19:30:51.574Z,69.30
2018-09-24T19:33:25.817Z,69.40
2018-09-24T19:36:00.433Z,69.60
2018-09-24T19:38:34.806Z,70.00
2018-09-24T19:41:10.342Z,70.00
2018-09-24T19:43:44.686Z,70.30
2018-09-24T19:46:19.057Z,70.80
2018-09-24T19:48:53.432Z,70.90
2018-09-24T19:51:27.702Z,71.40
2018-09-24T19:54:01.988Z,71.80
2018-09-24T19:56:36.109Z,73.10
2018-09-24T19:59:10.438Z,73.30
2018-09-24T20:01:44.784Z,73.50
2018-09-24T20:04:19.407Z,73.80
2018-09-24T20:06:53.759Z,74.40
2018-09-24T20:09:28.413Z,74.50
2018-09-24T20:12:02.765Z,74.50
2018-09-24T20:14:36.989Z,74.80
2018-09-24T20:17:11.347Z,74.80
2018-09-24T20:19:45.398Z,75.00
2018-09-24T20:22:19.570Z,75.50
2018-09-24T20:24:53.856Z,75.80
2018-09-24T20:27:27.943Z,75.90
2018-09-24T20:30:02.261Z,76.30
2018-09-24T20:32:36.620Z,76.70
2018-09-24T20:35:10.954Z,77.00
2018-09-24T20:37:45.295Z,77.10
2018-09-24T20:40:19.543Z,77.40
2018-09-24T20:42:53.797Z,77.70
2018-09-24T20:45:28.079Z,77.80
2018-09-24T20:48:02.276Z,77.90
2018-09-24T20:50:36.798Z,78.10
2018-09-24T20:53:11.234Z,78.20
2018-09-24T20:55:45.466Z,78.20
2018-09-24T20:58:19.657Z,78.10
2018-09-24T21:00:53.885Z,78.10
2018-09-24T21:03:29.390Z,78.70
2018-09-24T21:06:03.709Z,78.90
2018-09-24T21:08:37.877Z,79.00
2018-09-24T21:11:12.169Z,79.20
2018-09-24T21:13:46.446Z,79.40
2018-09-24T21:16:20.689Z,79.60
2018-09-24T21:18:54.813Z,79.70
2018-09-24T21:21:28.922Z,79.90
2018-09-24T21:24:03.060Z,79.80
2018-09-24T21:26:37.361Z,79.60
2018-09-24T21:29:11.446Z,79.50
2018-09-24T21:31:45.806Z,79.60
2018-09-24T21:34:19.954Z,79.60
2018-09-24T21:36:54.194Z,79.80
2018-09-24T21:39:28.340Z,79.80
2018-09-24T21:42:02.409Z,80.00
2018-09-24T21:44:36.560Z,80.10
2018-09-24T21:47:10.777Z,80.20
2018-09-24T21:49:45.139Z,80.40
2018-09-24T21:52:19.393Z,80.60
2018-09-24T21:54:53.560Z,80.70
2018-09-24T21:57:27.581Z,80.90
2018-09-24T22:00:01.659Z,81.20
2018-09-24T22:02:36.000Z,81.20
2018-09-24T22:05:10.393Z,81.30
2018-09-24T22:07:44.761Z,81.60
2018-09-24T22:10:18.979Z,81.70
2018-09-24T22:12:53.673Z,81.80
2018-09-24T22:15:27.884Z,81.90
2018-09-24T22:18:02.231Z,81.90
2018-09-24T22:20:36.433Z,82.00
2018-09-24T22:23:10.585Z,82.10
2018-09-24T22:25:44.741Z,82.10
2018-09-24T22:28:18.940Z,82.10
2018-09-24T22:30:53.783Z,81.90
2018-09-24T22:33:27.908Z,81.80
2018-09-24T22:36:02.251Z,81.90
2018-09-24T22:38:36.522Z,81.90
2018-09-24T22:41:10.766Z,81.80
2018-09-24T22:43:44.909Z,81.80
2018-09-24T22:46:19.117Z,81.90
2018-09-24T22:48:53.260Z,81.90
2018-09-24T22:51:27.368Z,81.90
2018-09-24T22:54:01.552Z,82.10
2018-09-24T22:56:35.933Z,82.20
2018-09-24T22:59:10.145Z,82.10
2018-09-24T23:01:44.510Z,82.20
2018-09-24T23:04:18.769Z,82.20
2018-09-24T23:06:53.103Z,82.30
2018-09-24T23:09:27.450Z,82.30
2018-09-24T23:12:01.861Z,82.20
2018-09-24T23:14:36.061Z,82.40
2018-09-24T23:17:10.488Z,82.40
2018-09-24T23:19:44.652Z,82.50
2018-09-24T23:22:18.790Z,82.70
2018-09-24T23:24:52.924Z,82.80
2018-09-24T23:27:27.313Z,82.80
2018-09-24T23:30:01.626Z,83.00
2018-09-24T23:32:35.918Z,83.00
2018-09-24T23:35:10.437Z,83.00
2018-09-24T23:37:44.659Z,83.10
2018-09-24T23:40:18.799Z,83.30
2018-09-24T23:42:52.958Z,83.40
2018-09-24T23:45:27.119Z,83.50
2018-09-24T23:48:01.433Z,83.40
2018-09-24T23:50:35.691Z,83.70
2018-09-24T23:53:09.957Z,83.90
2018-09-24T23:55:44.131Z,84.20
2018-09-24T23:58:18.392Z,84.20
